createdAt,value
2022-09-26T00:00:01.885Z,77.38
2022-09-26T00:01:12.416Z,77.83
2022-09-26T00:02:15.638Z,77.40
2022-09-26T00:03:20.754Z,78.21
2022-09-26T00:04:31.791Z,78.24
2022-09-26T00:05:33.486Z,77.71
2022-09-26T00:06:38.781Z,77.83
2022-09-26T00:07:43.507Z,77.92
2022-09-26T00:08:47.890Z,78.18
2022-09-26T00:09:51.118Z,78.65
2022-09-26T00:10:58.350Z,79.37
2022-09-26T00:12:05.822Z,78.07
2022-09-26T00:13:13.226Z,79.51
2022-09-26T00:14:20.429Z,78.26
2022-09-26T00:15:24.692Z,77.87
2022-09-26T00:16:28.358Z,78.60
2022-09-26T00:17:33.267Z,77.98
2022-09-26T00:18:36.240Z,77.71
2022-09-26T00:19:39.642Z,77.71
2022-09-26T00:20:42.727Z,78.14
2022-09-26T00:21:46.198Z,78.19
2022-09-26T00:22:48.589Z,77.61
2022-09-26T00:23:52.140Z,77.86
2022-09-26T00:24:58.501Z,77.46
2022-09-26T00:26:04.887Z,78.23
2022-09-26T00:27:08.468Z,77.34
2022-09-26T00:28:11.868Z,77.39
2022-09-26T00:29:16.618Z,78.40
2022-09-26T00:30:20.192Z,78.68
2022-09-26T00:31:26.875Z,78.15
2022-09-26T00:32:31.313Z,77.73
2022-09-26T00:33:37.124Z,77.28
2022-09-26T00:34:41.986Z,76.85
2022-09-26T00:35:47.579Z,77.21
2022-09-26T00:36:51.084Z,77.18
2022-09-26T00:37:54.590Z,75.92
2022-09-26T00:38:56.841Z,76.70
2022-09-26T00:40:02.113Z,77.03
2022-09-26T00:41:05.888Z,76.17
2022-09-26T00:42:12.152Z,76.42
2022-09-26T00:43:29.128Z,76.00
2022-09-26T00:44:38.598Z,76.22
2022-09-26T00:45:41.673Z,77.72
2022-09-26T00:46:46.969Z,77.78
2022-09-26T00:47:56.463Z,77.59
2022-09-26T00:49:20.611Z,77.80
2022-09-26T00:50:28.074Z,77.88
2022-09-26T00:51:32.634Z,77.73
2022-09-26T00:52:37.697Z,78.78
2022-09-26T00:53:43.660Z,78.03
2022-09-26T00:54:49.730Z,77.00
2022-09-26T00:55:55.312Z,77.67
2022-09-26T00:57:01.650Z,77.89
2022-09-26T00:58:11.306Z,77.61
2022-09-26T00:59:15.877Z,77.99
2022-09-26T01:00:19.570Z,77.54
2022-09-26T01:01:27.404Z,78.02
2022-09-26T01:02:32.028Z,76.80
2022-09-26T01:03:37.399Z,77.40
2022-09-26T01:04:43.296Z,77.36
2022-09-26T01:05:47.340Z,77.10
2022-09-26T01:06:49.800Z,77.27
2022-09-26T01:07:54.484Z,77.40
2022-09-26T01:09:01.189Z,76.94
2022-09-26T01:10:06.023Z,77.35
2022-09-26T01:11:13.623Z,78.00
2022-09-26T01:12:15.571Z,77.85
2022-09-26T01:13:18.973Z,77.05
2022-09-26T01:14:22.926Z,76.30
2022-09-26T01:15:28.391Z,76.23
2022-09-26T01:16:32.417Z,76.24
2022-09-26T01:17:37.521Z,75.84
2022-09-26T01:18:43.850Z,76.62
2022-09-26T01:19:51.693Z,77.12
2022-09-26T01:21:00.014Z,76.45
2022-09-26T01:22:08.428Z,75.83
2022-09-26T01:23:12.768Z,75.70
2022-09-26T01:24:24.200Z,76.34
2022-09-26T01:25:29.220Z,76.04
2022-09-26T01:26:45.311Z,76.71
2022-09-26T01:28:07.316Z,76.84
2022-09-26T01:29:11.939Z,78.03
2022-09-26T01:30:23.235Z,79.06
2022-09-26T01:31:29.736Z,78.69
2022-09-26T01:32:51.349Z,78.51
2022-09-26T01:33:58.495Z,77.30
2022-09-26T01:35:12.933Z,78.08
2022-09-26T01:36:21.039Z,78.13
2022-09-26T01:37:29.250Z,78.64
2022-09-26T01:38:37.424Z,78.61
2022-09-26T01:39:45.379Z,78.90
2022-09-26T01:40:50.492Z,78.64
2022-09-26T01:41:54.750Z,78.68
2022-09-26T01:43:00.876Z,78.85
2022-09-26T01:44:17.006Z,78.97
2022-09-26T01:45:21.991Z,79.26
2022-09-26T01:46:37.481Z,79.72
2022-09-26T01:47:45.599Z,80.18
2022-09-26T01:48:50.980Z,80.27
2022-09-26T01:50:00.758Z,80.47
2022-09-26T01:51:09.907Z,81.13
2022-09-26T01:52:20.515Z,81.35
2022-09-26T01:53:26.200Z,82.54
2022-09-26T01:54:33.370Z,83.12
2022-09-26T01:55:38.118Z,82.29
2022-09-26T01:56:42.500Z,81.83
2022-09-26T01:57:48.052Z,83.36
2022-09-26T01:58:56.923Z,82.92
2022-09-26T02:00:03.106Z,82.67
2022-09-26T02:01:09.330Z,84.08
2022-09-26T02:02:18.731Z,84.95
2022-09-26T02:03:23.136Z,85.04
2022-09-26T02:04:29.745Z,85.56
2022-09-26T02:05:34.779Z,84.93
2022-09-26T02:06:43.573Z,86.71
2022-09-26T02:07:48.559Z,87.31
2022-09-26T02:08:55.690Z,86.63
2022-09-26T02:10:01.192Z,85.87
2022-09-26T02:11:10.952Z,86.31
2022-09-26T02:12:19.167Z,87.45
2022-09-26T02:13:28.511Z,86.44
2022-09-26T02:14:33.385Z,87.82
2022-09-26T02:15:38.039Z,88.15
2022-09-26T02:16:50.484Z,88.25
2022-09-26T02:17:54.705Z,88.75
2022-09-26T02:18:59.980Z,88.73
2022-09-26T02:20:09.102Z,88.51
2022-09-26T02:21:16.040Z,88.78
2022-09-26T02:22:20.271Z,89.51
2022-09-26T02:23:23.921Z,88.37
2022-09-26T02:24:30.966Z,88.75
2022-09-26T02:25:34.862Z,88.86
2022-09-26T02:26:39.927Z,88.56
2022-09-26T02:27:43.114Z,89.34
2022-09-26T02:28:47.141Z,90.62
2022-09-26T02:29:52.420Z,92.50
2022-09-26T02:31:01.276Z,91.84
2022-09-26T02:32:08.158Z,91.29
2022-09-26T02:33:12.336Z,90.67
2022-09-26T02:34:15.809Z,90.63
2022-09-26T02:35:37.327Z,89.76
2022-09-26T02:36:40.826Z,90.11
2022-09-26T02:37:45.271Z,90.55
2022-09-26T02:38:49.090Z,91.80
2022-09-26T02:40:09.203Z,92.16
2022-09-26T02:41:23.141Z,92.56
2022-09-26T02:42:28.745Z,91.66
2022-09-26T02:43:40.084Z,91.78
2022-09-26T02:44:44.099Z,91.48
2022-09-26T02:45:48.503Z,90.87
2022-09-26T02:47:12.220Z,91.24
2022-09-26T02:48:19.164Z,90.30
2022-09-26T02:49:27.690Z,91.51
2022-09-26T02:50:43.207Z,91.73
2022-09-26T02:51:50.681Z,90.87
2022-09-26T02:52:56.795Z,90.52
2022-09-26T02:54:11.582Z,89.82
2022-09-26T02:55:28.067Z,90.45
2022-09-26T02:56:49.613Z,91.42
2022-09-26T02:58:01.997Z,90.28
2022-09-26T02:59:18.441Z,91.84
2022-09-26T03:00:26.705Z,93.39
2022-09-26T03:01:37.609Z,94.33
2022-09-26T03:02:48.803Z,93.74
2022-09-26T03:03:55.660Z,93.60
2022-09-26T03:05:05.556Z,94.29
2022-09-26T03:06:11.728Z,93.49
2022-09-26T03:07:16.935Z,92.76
2022-09-26T03:08:24.709Z,91.94
2022-09-26T03:09:31.257Z,92.55
2022-09-26T03:10:35.514Z,92.88
2022-09-26T03:11:40.353Z,91.58
2022-09-26T03:12:44.696Z,91.21
2022-09-26T03:13:48.522Z,91.35
2022-09-26T03:14:57.961Z,90.99
2022-09-26T03:16:00.373Z,90.82
2022-09-26T03:17:05.674Z,91.25
2022-09-26T03:18:10.923Z,91.30
2022-09-26T03:19:34.440Z,92.05
2022-09-26T03:20:37.732Z,92.19
2022-09-26T03:21:43.896Z,92.55
2022-09-26T03:22:47.191Z,92.81
2022-09-26T03:23:50.556Z,93.05
2022-09-26T03:24:53.642Z,93.02
2022-09-26T03:26:01.527Z,92.19
2022-09-26T03:27:07.021Z,92.24
2022-09-26T03:28:12.816Z,92.34
2022-09-26T03:29:18.421Z,92.06
2022-09-26T03:30:23.507Z,92.23
2022-09-26T03:31:31.839Z,92.31
2022-09-26T03:32:42.457Z,93.56
2022-09-26T03:33:48.015Z,93.90
2022-09-26T03:34:53.174Z,93.64
2022-09-26T03:35:56.789Z,93.31
2022-09-26T03:36:59.134Z,93.73
2022-09-26T03:38:02.431Z,92.95
2022-09-26T03:39:10.118Z,93.91
2022-09-26T03:40:30.363Z,93.16
2022-09-26T03:41:36.902Z,93.92
2022-09-26T03:42:46.706Z,93.86
2022-09-26T03:43:50.348Z,92.61
2022-09-26T03:44:54.282Z,92.02
2022-09-26T03:46:08.805Z,92.16
2022-09-26T03:47:13.202Z,90.75
2022-09-26T03:48:19.513Z,92.43
2022-09-26T03:49:23.892Z,91.66
2022-09-26T03:50:26.320Z,92.36
2022-09-26T03:51:31.034Z,90.94
2022-09-26T03:52:33.638Z,90.30
2022-09-26T03:53:39.348Z,90.54
2022-09-26T03:54:46.408Z,89.98
2022-09-26T03:55:51.241Z,89.79
2022-09-26T03:56:57.173Z,89.58
2022-09-26T03:58:01.553Z,88.03
2022-09-26T03:59:06.764Z,87.49
2022-09-26T04:00:09.996Z,87.47
2022-09-26T04:01:25.187Z,87.21
2022-09-26T04:02:28.778Z,87.25
2022-09-26T04:03:35.637Z,87.15
2022-09-26T04:04:39.453Z,86.71
2022-09-26T04:05:43.177Z,86.77
2022-09-26T04:06:49.161Z,86.45
2022-09-26T04:07:52.698Z,88.35
2022-09-26T04:08:56.816Z,86.68
2022-09-26T04:10:00.216Z,87.08
2022-09-26T04:11:04.821Z,87.81
2022-09-26T04:12:08.689Z,87.30
2022-09-26T04:13:33.742Z,88.64
2022-09-26T04:14:19.365Z,88.32
2022-09-26T04:15:25.472Z,87.13
2022-09-26T04:16:30.175Z,88.66
2022-09-26T04:17:35.625Z,86.92
2022-09-26T04:18:39.442Z,87.14
2022-09-26T04:19:42.638Z,88.02
2022-09-26T04:20:46.244Z,88.42
2022-09-26T04:21:50.574Z,87.61
2022-09-26T04:22:52.837Z,88.10
2022-09-26T04:23:59.980Z,87.49
2022-09-26T04:25:03.502Z,88.45
2022-09-26T04:26:08.573Z,88.21
2022-09-26T04:27:12.286Z,88.39
2022-09-26T04:28:16.837Z,87.60
2022-09-26T04:29:20.331Z,87.85
2022-09-26T04:30:25.414Z,87.74
2022-09-26T04:31:30.957Z,87.79
2022-09-26T04:32:36.288Z,88.35
2022-09-26T04:33:41.453Z,87.42
2022-09-26T04:34:44.958Z,88.70
2022-09-26T04:35:47.749Z,88.48
2022-09-26T04:36:54.524Z,87.22
2022-09-26T04:37:57.979Z,89.98
2022-09-26T04:39:03.480Z,88.81
2022-09-26T04:40:06.387Z,87.00
2022-09-26T04:41:12.766Z,87.39
2022-09-26T04:42:16.252Z,86.88
2022-09-26T04:43:18.682Z,87.28
2022-09-26T04:44:21.020Z,87.51
2022-09-26T04:45:24.144Z,87.51
2022-09-26T04:46:30.809Z,86.24
2022-09-26T04:47:32.261Z,87.09
2022-09-26T04:48:49.905Z,87.56
2022-09-26T04:49:54.849Z,87.54
2022-09-26T04:50:58.812Z,88.67
2022-09-26T04:52:04.996Z,88.07
2022-09-26T04:53:08.067Z,88.12
2022-09-26T04:54:18.143Z,88.43
2022-09-26T04:55:22.679Z,86.74
2022-09-26T04:56:26.987Z,88.26
2022-09-26T04:57:31.214Z,89.04
2022-09-26T04:58:34.682Z,86.90
2022-09-26T04:59:37.910Z,87.93
2022-09-26T05:00:48.803Z,87.49
2022-09-26T05:01:55.596Z,87.49
2022-09-26T05:03:03.277Z,87.66
2022-09-26T05:04:06.483Z,88.83
2022-09-26T05:05:10.387Z,89.57
2022-09-26T05:06:14.703Z,88.48
2022-09-26T05:07:19.804Z,86.85
2022-09-26T05:08:24.058Z,88.16
2022-09-26T05:09:34.190Z,88.77
2022-09-26T05:10:48.687Z,87.18
2022-09-26T05:11:52.071Z,87.06
2022-09-26T05:12:57.233Z,87.19
2022-09-26T05:13:59.921Z,85.86
2022-09-26T05:15:05.531Z,86.18
2022-09-26T05:16:11.385Z,84.86
2022-09-26T05:17:15.874Z,85.55
2022-09-26T05:18:20.298Z,87.70
2022-09-26T05:19:23.574Z,85.35
2022-09-26T05:20:29.716Z,86.94
2022-09-26T05:21:34.179Z,86.86
2022-09-26T05:22:36.903Z,87.61
2022-09-26T05:23:57.717Z,88.55
2022-09-26T05:25:19.686Z,90.10
2022-09-26T05:26:26.919Z,88.99
2022-09-26T05:27:31.833Z,88.15
2022-09-26T05:28:35.794Z,87.73
2022-09-26T05:29:38.492Z,86.37
2022-09-26T05:30:44.778Z,86.74
2022-09-26T05:31:47.476Z,86.36
2022-09-26T05:32:52.662Z,85.98
2022-09-26T05:34:00.602Z,87.27
2022-09-26T05:35:06.855Z,86.55
2022-09-26T05:36:12.126Z,87.69
2022-09-26T05:37:15.402Z,86.43
2022-09-26T05:38:19.237Z,85.77
2022-09-26T05:39:42.747Z,86.53
2022-09-26T05:41:09.192Z,85.63
2022-09-26T05:42:13.443Z,87.77
2022-09-26T05:43:16.960Z,87.67
2022-09-26T05:44:21.242Z,88.55
2022-09-26T05:45:24.439Z,85.90
2022-09-26T05:46:29.016Z,86.49
2022-09-26T05:47:36.310Z,84.78
2022-09-26T05:48:42.215Z,86.08
2022-09-26T05:49:47.361Z,86.07
2022-09-26T05:50:51.898Z,87.17
2022-09-26T05:51:58.343Z,86.54
2022-09-26T05:53:02.171Z,86.31
2022-09-26T05:54:05.867Z,85.19
2022-09-26T05:55:11.389Z,85.86
2022-09-26T05:56:33.164Z,85.39
2022-09-26T05:57:54.396Z,85.73
2022-09-26T05:58:59.422Z,87.88
2022-09-26T06:00:16.099Z,87.76
2022-09-26T06:01:21.922Z,86.68
2022-09-26T06:02:26.404Z,87.04
2022-09-26T06:03:46.956Z,88.45
2022-09-26T06:04:52.096Z,87.70
2022-09-26T06:06:08.177Z,86.17
2022-09-26T06:07:12.191Z,85.76
2022-09-26T06:08:17.438Z,87.08
2022-09-26T06:09:32.222Z,87.43
2022-09-26T06:10:51.798Z,86.45
2022-09-26T06:11:54.393Z,86.64
2022-09-26T06:12:59.330Z,86.47
2022-09-26T06:14:03.127Z,86.56
2022-09-26T06:15:10.964Z,87.00
2022-09-26T06:16:16.614Z,87.65
2022-09-26T06:17:20.250Z,86.89
2022-09-26T06:18:23.635Z,87.19
2022-09-26T06:19:25.859Z,87.62
2022-09-26T06:20:30.870Z,87.81
2022-09-26T06:21:36.118Z,87.23
2022-09-26T06:22:45.077Z,87.04
2022-09-26T06:23:48.757Z,87.09
2022-09-26T06:24:53.901Z,86.65
2022-09-26T06:25:57.226Z,86.43
2022-09-26T06:27:01.541Z,86.10
2022-09-26T06:28:06.649Z,87.53
2022-09-26T06:29:12.091Z,87.02
2022-09-26T06:30:17.533Z,87.64
2022-09-26T06:31:21.456Z,86.99
2022-09-26T06:32:44.607Z,87.80
2022-09-26T06:34:00.031Z,86.28
2022-09-26T06:35:11.862Z,86.50
2022-09-26T06:36:25.159Z,85.62
2022-09-26T06:37:28.278Z,86.10
2022-09-26T06:38:31.674Z,85.87
2022-09-26T06:39:37.756Z,85.32
2022-09-26T06:40:42.356Z,86.25
2022-09-26T06:41:45.922Z,84.80
2022-09-26T06:42:50.835Z,85.33
2022-09-26T06:43:55.987Z,84.68
2022-09-26T06:45:05.218Z,85.48
2022-09-26T06:46:09.387Z,84.56
2022-09-26T06:47:14.775Z,85.88
2022-09-26T06:48:22.414Z,84.60
2022-09-26T06:49:35.645Z,86.05
2022-09-26T06:50:42.406Z,84.28
2022-09-26T06:51:50.118Z,85.05
2022-09-26T06:52:56.062Z,83.90
2022-09-26T06:54:01.052Z,81.52
2022-09-26T06:55:05.086Z,82.75
2022-09-26T06:56:08.693Z,83.24
2022-09-26T06:57:15.382Z,83.34
2022-09-26T06:58:20.114Z,82.44
2022-09-26T06:59:24.985Z,83.40
2022-09-26T07:00:29.353Z,83.04
2022-09-26T07:01:40.885Z,82.86
2022-09-26T07:03:02.891Z,83.60
2022-09-26T07:04:27.903Z,79.73
2022-09-26T07:05:35.533Z,79.60
2022-09-26T07:06:39.254Z,81.93
2022-09-26T07:07:42.855Z,82.72
2022-09-26T07:09:02.053Z,82.23
2022-09-26T07:09:58.556Z,82.07
2022-09-26T07:12:24.475Z,80.87
2022-09-26T07:13:29.391Z,80.03
2022-09-26T07:14:34.001Z,78.61
2022-09-26T07:15:40.686Z,80.43
2022-09-26T07:16:45.750Z,80.33
2022-09-26T07:18:09.963Z,80.41
2022-09-26T07:19:33.040Z,80.03
2022-09-26T07:20:41.280Z,78.44
2022-09-26T07:21:52.350Z,79.52
2022-09-26T07:22:57.793Z,78.74
2022-09-26T07:24:02.834Z,77.76
2022-09-26T07:25:05.493Z,79.02
2022-09-26T07:26:08.966Z,77.82
2022-09-26T07:27:15.087Z,76.54
2022-09-26T07:28:18.385Z,78.56
2022-09-26T07:29:24.495Z,75.35
2022-09-26T07:30:28.672Z,74.48
2022-09-26T07:31:37.550Z,74.75
2022-09-26T07:32:47.264Z,75.98
2022-09-26T07:33:58.095Z,74.71
2022-09-26T07:35:03.276Z,74.78
2022-09-26T07:36:06.343Z,74.95
2022-09-26T07:37:09.271Z,73.95
2022-09-26T07:38:14.436Z,73.71
2022-09-26T07:39:21.825Z,73.64
2022-09-26T07:40:25.600Z,74.82
2022-09-26T07:41:31.096Z,75.96
2022-09-26T07:42:34.981Z,74.65
2022-09-26T07:44:41.179Z,72.95
2022-09-26T07:46:12.872Z,73.69
2022-09-26T07:47:37.256Z,74.54
2022-09-26T07:49:00.833Z,72.38
2022-09-26T07:50:23.255Z,73.33
2022-09-26T07:51:40.316Z,74.18
2022-09-26T07:52:46.514Z,73.25
2022-09-26T07:53:57.566Z,73.75
2022-09-26T07:55:20.812Z,74.10
2022-09-26T07:56:28.712Z,76.50
2022-09-26T07:57:37.366Z,75.98
2022-09-26T07:58:46.755Z,72.90
2022-09-26T07:59:57.555Z,73.43
2022-09-26T08:01:24.060Z,73.22
2022-09-26T08:02:38.022Z,74.12
2022-09-26T08:03:42.171Z,73.55
2022-09-26T08:04:47.782Z,73.29
2022-09-26T08:05:51.871Z,74.65
2022-09-26T08:06:56.350Z,73.12
2022-09-26T08:07:59.698Z,72.63
2022-09-26T08:09:04.832Z,74.58
2022-09-26T08:10:27.447Z,73.33
2022-09-26T08:11:50.482Z,75.40
2022-09-26T08:12:58.235Z,73.73
2022-09-26T08:14:09.561Z,75.88
2022-09-26T08:15:13.660Z,75.05
2022-09-26T08:16:22.387Z,75.71
2022-09-26T08:17:30.773Z,74.32
2022-09-26T08:18:34.108Z,71.75
2022-09-26T08:19:38.221Z,73.02
2022-09-26T08:20:41.509Z,74.25
2022-09-26T08:21:45.026Z,74.60
2022-09-26T08:22:48.355Z,70.94
2022-09-26T08:23:53.405Z,70.74
2022-09-26T08:25:10.532Z,71.10
2022-09-26T08:26:16.228Z,69.27
2022-09-26T08:27:24.954Z,71.04
2022-09-26T08:28:30.259Z,69.82
2022-09-26T08:29:34.387Z,69.44
2022-09-26T08:30:39.420Z,68.09
2022-09-26T08:31:43.117Z,71.37
2022-09-26T08:32:54.712Z,70.22
2022-09-26T08:33:57.984Z,71.07
2022-09-26T08:35:01.240Z,69.07
2022-09-26T08:36:22.532Z,68.61
2022-09-26T08:37:35.772Z,68.16
2022-09-26T08:38:57.562Z,67.88
2022-09-26T08:40:07.770Z,66.27
2022-09-26T08:41:25.668Z,66.61
2022-09-26T08:42:45.488Z,67.39
2022-09-26T08:43:59.637Z,67.91
2022-09-26T08:45:46.804Z,67.89
2022-09-26T08:47:04.301Z,66.10
2022-09-26T08:48:19.869Z,67.43
2022-09-26T08:49:42.915Z,65.96
2022-09-26T08:50:47.249Z,65.57
2022-09-26T08:51:52.056Z,67.23
2022-09-26T08:52:58.667Z,64.35
2022-09-26T08:54:05.959Z,65.18
2022-09-26T08:55:13.413Z,61.94
2022-09-26T08:56:20.899Z,61.32
2022-09-26T08:57:45.007Z,62.03
2022-09-26T08:58:52.100Z,61.02
2022-09-26T08:59:56.880Z,61.20
2022-09-26T09:01:03.043Z,61.28
2022-09-26T09:02:20.279Z,59.18
2022-09-26T09:03:34.226Z,59.37
2022-09-26T09:04:43.230Z,60.29
2022-09-26T09:05:48.158Z,59.45
2022-09-26T09:06:54.447Z,58.70
2022-09-26T09:07:59.180Z,58.64
2022-09-26T09:09:03.143Z,58.26
2022-09-26T09:10:10.220Z,58.26
2022-09-26T09:11:22.911Z,57.28
2022-09-26T09:12:33.479Z,56.91
2022-09-26T09:13:59.028Z,54.96
2022-09-26T09:15:25.678Z,55.24
2022-09-26T09:16:42.418Z,55.38
2022-09-26T09:18:13.272Z,52.28
2022-09-26T09:19:48.989Z,52.91
2022-09-26T09:21:13.719Z,52.83
2022-09-26T09:22:27.822Z,51.77
2022-09-26T09:23:38.330Z,52.83
2022-09-26T09:24:43.487Z,52.01
2022-09-26T09:25:50.140Z,52.35
2022-09-26T09:28:26.299Z,51.55
2022-09-26T09:29:36.266Z,50.30
2022-09-26T09:31:02.566Z,50.90
2022-09-26T09:32:13.806Z,51.08
2022-09-26T09:33:23.965Z,49.00
2022-09-26T09:34:31.942Z,49.57
2022-09-26T09:35:44.116Z,48.99
2022-09-26T09:37:07.155Z,48.84
2022-09-26T09:38:33.283Z,48.23
2022-09-26T09:39:40.960Z,48.48
2022-09-26T09:41:02.761Z,49.57
2022-09-26T09:42:26.954Z,48.54
2022-09-26T09:43:50.331Z,48.18
2022-09-26T09:44:58.174Z,48.01
2022-09-26T09:46:06.479Z,47.95
2022-09-26T09:47:15.164Z,47.58
2022-09-26T09:48:18.275Z,47.54
2022-09-26T09:49:26.079Z,47.37
2022-09-26T09:50:30.135Z,46.20
2022-09-26T09:51:40.799Z,47.18
2022-09-26T09:52:47.175Z,47.29
2022-09-26T09:53:55.210Z,47.29
2022-09-26T09:55:00.386Z,45.68
2022-09-26T09:56:07.540Z,45.18
2022-09-26T09:57:27.043Z,44.90
2022-09-26T09:58:49.090Z,44.76
2022-09-26T09:59:57.031Z,43.92
2022-09-26T10:01:07.307Z,45.43
2022-09-26T10:02:28.835Z,44.95
2022-09-26T10:03:56.125Z,45.24
2022-09-26T10:05:02.638Z,47.06
2022-09-26T10:06:08.571Z,44.68
2022-09-26T10:07:16.351Z,46.48
2022-09-26T10:09:40.896Z,44.92
2022-09-26T10:11:11.184Z,44.22
2022-09-26T10:12:18.857Z,43.94
2022-09-26T10:13:32.609Z,43.43
2022-09-26T10:14:45.830Z,44.86
2022-09-26T10:15:58.853Z,44.87
2022-09-26T10:17:23.523Z,43.56
2022-09-26T10:18:32.061Z,44.71
2022-09-26T10:19:44.654Z,45.08
2022-09-26T10:20:54.835Z,43.44
2022-09-26T10:22:00.217Z,45.55
2022-09-26T10:23:05.915Z,43.23
2022-09-26T10:24:28.331Z,43.44
2022-09-26T10:25:33.501Z,43.40
2022-09-26T10:26:40.501Z,43.78
2022-09-26T10:27:52.221Z,44.24
2022-09-26T10:28:56.811Z,44.06
2022-09-26T10:30:04.010Z,44.33
2022-09-26T10:31:09.337Z,43.00
2022-09-26T10:32:14.810Z,43.90
2022-09-26T10:33:24.567Z,44.48
2022-09-26T10:34:31.425Z,42.93
2022-09-26T10:35:45.775Z,41.94
2022-09-26T10:36:50.643Z,42.96
2022-09-26T10:38:00.520Z,44.02
2022-09-26T10:39:26.170Z,43.96
2022-09-26T10:40:48.894Z,44.27
2022-09-26T10:41:54.674Z,43.32
2022-09-26T10:42:59.711Z,43.24
2022-09-26T10:44:05.412Z,44.16
2022-09-26T10:45:31.114Z,44.20
2022-09-26T10:46:47.145Z,45.15
2022-09-26T10:48:02.471Z,44.84
2022-09-26T10:49:25.395Z,46.52
2022-09-26T10:50:30.956Z,45.04
2022-09-26T10:51:45.575Z,45.99
2022-09-26T10:52:55.451Z,44.86
2022-09-26T10:54:04.063Z,45.19
2022-09-26T10:55:09.561Z,45.39
2022-09-26T10:56:17.337Z,45.30
2022-09-26T10:57:23.778Z,44.23
2022-09-26T10:58:30.520Z,44.26
2022-09-26T10:59:37.570Z,43.54
2022-09-26T11:00:42.638Z,45.30
2022-09-26T11:01:57.304Z,43.69
2022-09-26T11:03:01.149Z,43.82
2022-09-26T11:04:12.723Z,42.52
2022-09-26T11:05:39.396Z,43.63
2022-09-26T11:06:50.309Z,44.66
2022-09-26T11:07:57.090Z,42.75
2022-09-26T11:09:08.390Z,44.87
2022-09-26T11:10:31.211Z,46.39
2022-09-26T11:11:42.870Z,45.83
2022-09-26T11:12:58.107Z,45.28
2022-09-26T11:14:09.399Z,45.15
2022-09-26T11:15:15.029Z,44.58
2022-09-26T11:16:21.337Z,43.79
2022-09-26T11:17:41.550Z,43.19
2022-09-26T11:18:54.142Z,42.42
2022-09-26T11:20:01.915Z,43.71
2022-09-26T11:21:23.070Z,43.12
2022-09-26T11:22:26.904Z,42.18
2022-09-26T11:23:48.478Z,42.44
2022-09-26T11:25:00.025Z,43.44
2022-09-26T11:26:10.412Z,42.98
2022-09-26T11:27:31.530Z,43.26
2022-09-26T11:28:37.743Z,43.03
2022-09-26T11:29:53.831Z,44.17
2022-09-26T11:31:00.148Z,42.20
2022-09-26T11:32:05.226Z,42.27
2022-09-26T11:33:19.378Z,43.13
2022-09-26T11:34:42.635Z,42.84
2022-09-26T11:36:05.365Z,42.08
2022-09-26T11:37:10.547Z,40.68
2022-09-26T11:38:34.716Z,42.12
2022-09-26T11:39:42.839Z,42.54
2022-09-26T11:41:02.385Z,44.25
2022-09-26T11:42:07.698Z,44.35
2022-09-26T11:43:32.654Z,44.77
2022-09-26T11:44:42.595Z,43.86
2022-09-26T11:47:24.600Z,44.70
2022-09-26T11:48:31.863Z,45.60
2022-09-26T11:49:56.454Z,44.83
2022-09-26T11:51:04.878Z,46.45
2022-09-26T11:52:13.816Z,47.01
2022-09-26T11:53:21.481Z,46.42
2022-09-26T11:54:35.960Z,46.31
2022-09-26T11:55:48.667Z,45.63
2022-09-26T11:56:56.046Z,46.30
2022-09-26T11:58:07.266Z,46.05
2022-09-26T11:59:24.656Z,47.05
2022-09-26T12:00:31.817Z,46.56
2022-09-26T12:01:40.126Z,46.22
2022-09-26T12:02:45.300Z,46.75
2022-09-26T12:04:08.697Z,48.07
2022-09-26T12:05:30.655Z,46.68
2022-09-26T12:06:38.059Z,46.26
2022-09-26T12:07:45.879Z,46.82
2022-09-26T12:08:55.261Z,46.03
2022-09-26T12:10:02.917Z,47.21
2022-09-26T12:11:11.774Z,46.05
2022-09-26T12:12:20.618Z,47.69
2022-09-26T12:13:33.659Z,46.78
2022-09-26T12:14:42.107Z,46.00
2022-09-26T12:15:52.037Z,47.38
2022-09-26T12:17:02.847Z,46.96
2022-09-26T12:18:16.045Z,46.69
2022-09-26T12:19:22.107Z,46.85
2022-09-26T12:20:33.099Z,48.90
2022-09-26T12:21:40.360Z,46.68
2022-09-26T12:22:48.601Z,47.24
2022-09-26T12:23:57.685Z,47.03
2022-09-26T12:25:03.722Z,46.62
2022-09-26T12:26:14.326Z,46.39
2022-09-26T12:27:19.494Z,47.58
2022-09-26T12:28:40.713Z,48.01
2022-09-26T12:29:46.255Z,48.04
2022-09-26T12:31:07.437Z,49.06
2022-09-26T12:32:28.664Z,48.73
2022-09-26T12:33:36.345Z,46.48
2022-09-26T12:34:46.343Z,46.55
2022-09-26T12:35:59.558Z,46.58
2022-09-26T12:37:08.795Z,47.18
2022-09-26T12:38:32.222Z,46.29
2022-09-26T12:39:54.241Z,48.49
2022-09-26T12:40:59.613Z,47.68
2022-09-26T12:42:23.928Z,48.14
2022-09-26T12:43:32.446Z,47.43
2022-09-26T12:44:37.937Z,47.22
2022-09-26T12:45:53.458Z,47.11
2022-09-26T12:46:59.440Z,46.89
2022-09-26T12:48:05.239Z,45.81
2022-09-26T12:49:18.276Z,46.15
2022-09-26T12:50:39.005Z,46.35
2022-09-26T12:51:48.166Z,47.39
2022-09-26T12:52:52.292Z,47.03
2022-09-26T12:53:57.356Z,45.95
2022-09-26T12:55:18.104Z,46.88
2022-09-26T12:56:24.721Z,47.11
2022-09-26T12:57:33.678Z,48.32
2022-09-26T12:58:55.461Z,47.48
2022-09-26T13:00:09.830Z,47.33
2022-09-26T13:01:32.540Z,47.61
2022-09-26T13:02:41.104Z,46.61
2022-09-26T13:03:55.010Z,46.10
2022-09-26T13:05:17.422Z,45.46
2022-09-26T13:06:34.296Z,47.09
2022-09-26T13:07:43.795Z,46.46
2022-09-26T13:09:05.018Z,46.43
2022-09-26T13:10:28.790Z,46.92
2022-09-26T13:11:50.357Z,47.69
2022-09-26T13:13:13.441Z,47.56
2022-09-26T13:14:18.373Z,47.47
2022-09-26T13:15:26.102Z,47.59
2022-09-26T13:16:33.190Z,47.92
2022-09-26T13:17:38.287Z,50.18
2022-09-26T13:18:45.600Z,50.14
2022-09-26T13:19:59.086Z,50.01
2022-09-26T13:21:07.708Z,49.67
2022-09-26T13:22:16.644Z,49.65
2022-09-26T13:23:21.819Z,49.56
2022-09-26T13:24:26.371Z,49.83
2022-09-26T13:25:44.865Z,50.83
2022-09-26T13:26:50.195Z,51.85
2022-09-26T13:27:58.471Z,51.17
2022-09-26T13:29:24.118Z,52.42
2022-09-26T13:30:19.567Z,52.56
2022-09-26T13:31:32.614Z,51.11
2022-09-26T13:32:41.908Z,52.07
2022-09-26T13:35:03.266Z,52.82
2022-09-26T13:36:12.344Z,53.36
2022-09-26T13:37:29.832Z,52.01
2022-09-26T13:38:41.075Z,51.96
2022-09-26T13:39:46.669Z,52.99
2022-09-26T13:40:52.256Z,53.48
2022-09-26T13:42:13.095Z,54.76
2022-09-26T13:43:35.413Z,53.86
2022-09-26T13:44:55.002Z,53.47
2022-09-26T13:46:06.580Z,54.15
2022-09-26T13:47:13.181Z,54.83
2022-09-26T13:48:23.095Z,55.68
2022-09-26T13:49:27.187Z,54.92
2022-09-26T13:50:34.930Z,55.73
2022-09-26T13:51:49.170Z,56.18
2022-09-26T13:53:08.524Z,56.01
2022-09-26T13:54:27.476Z,55.67
2022-09-26T13:55:34.382Z,56.04
2022-09-26T13:56:40.896Z,56.55
2022-09-26T13:57:49.291Z,56.82
2022-09-26T13:58:54.657Z,57.95
2022-09-26T14:00:02.767Z,57.39
2022-09-26T14:01:27.510Z,58.79
2022-09-26T14:02:32.839Z,58.28
2022-09-26T14:03:38.548Z,59.21
2022-09-26T14:04:42.574Z,58.28
2022-09-26T14:05:47.872Z,57.85
2022-09-26T14:07:30.796Z,58.11
2022-09-26T14:08:54.305Z,59.43
2022-09-26T14:10:05.751Z,57.32
2022-09-26T14:11:29.405Z,56.59
2022-09-26T14:12:34.904Z,55.65
2022-09-26T14:13:41.821Z,56.74
2022-09-26T14:14:46.792Z,56.86
2022-09-26T14:15:59.220Z,57.49
2022-09-26T14:17:05.217Z,57.95
2022-09-26T14:18:30.346Z,58.17
2022-09-26T14:19:36.762Z,57.89
2022-09-26T14:20:42.806Z,58.07
2022-09-26T14:22:03.725Z,57.58
2022-09-26T14:23:08.286Z,58.11
2022-09-26T14:24:21.815Z,57.94
2022-09-26T14:25:43.575Z,58.13
2022-09-26T14:27:07.029Z,58.22
2022-09-26T14:28:13.024Z,58.37
2022-09-26T14:29:28.477Z,58.13
2022-09-26T14:30:34.751Z,58.86
2022-09-26T14:31:41.563Z,59.79
2022-09-26T14:32:50.582Z,59.83
2022-09-26T14:34:34.190Z,60.33
2022-09-26T14:35:39.270Z,60.74
2022-09-26T14:36:43.289Z,61.22
2022-09-26T14:37:49.961Z,62.57
2022-09-26T14:38:53.988Z,62.39
2022-09-26T14:40:03.561Z,62.31
2022-09-26T14:41:13.139Z,61.98
2022-09-26T14:42:18.289Z,61.67
2022-09-26T14:43:24.705Z,61.25
2022-09-26T14:44:34.997Z,60.75
2022-09-26T14:45:38.597Z,60.47
2022-09-26T14:46:42.556Z,60.84
2022-09-26T14:47:58.560Z,61.14
2022-09-26T14:49:05.930Z,61.77
2022-09-26T14:50:22.155Z,61.86
2022-09-26T14:51:30.209Z,61.31
2022-09-26T14:52:37.547Z,61.24
2022-09-26T14:53:41.663Z,61.32
2022-09-26T14:54:47.570Z,61.77
2022-09-26T14:55:52.521Z,60.96
2022-09-26T14:57:03.359Z,60.88
2022-09-26T14:58:15.337Z,61.91